Stewart, Canada
Current Conditions -  °F | °C
As of 4:53 AM on Monday 20 Oct 2014 (Local Time) from PAKT Reporting Station
Light Rain Light Rain  
Wind Chill: 52°   Ceiling: 1400
Heat Index: 52°   Visibility: 8mi
Dew Point: 50°   Wind: 17mph
Humidity: 93%   Direction: 140°SE
Pressure: 29.29"   Gusts: 28mph
Location:  55.93°N, 130°W
Report Text: PAKT 201153Z AUTO 14015G24KT 8SM -RA FEW007 BKN014 OVC028 11/10 A2929 RMK AO2 PK WND 13033/1117 SLP920 P0023 60055 70119 T01110100 10117 20106 53002 TSNO
Loading
Personal Weather Stations






























Interactive Weather Map
Tropical Storm Tracking
New forecast layout! Learn more

10-Day Weather Forecast

Advertisements
Track Severe Weather on mobile